KEWR

Newark Liberty International Airport

Newark, New Jersey, USA
METAR KEWR 191051Z 36006KT 10SM SCT250 21/18 A2984 RMK AO2 SLP103 T02110183
Observed Flight Rules
Sep-19 @ 10:51 UTC (41 minutes ago) Visual Flight Rules
Wind Visibility Clouds
360° at 6 knots 10 miles
  • Scattered at 25,000' AGL
Temperatures Readings
Current 21°C / 70°F
Dewpoint 18°C / 64°F
Humidity 83%
Altimeter 29.84" Hg
Pressure 1010.3 hPa
Elevation 7
METAR KEWR 191051Z 36006KT 10SM SCT250 21/18 A2984 RMK AO2 SLP103 T02110183
Observed Flight Rules
Sep-19 @ 10:51 UTC
(41 minutes ago)
VFR
Wind Visibility
360° at 6 knots 10 miles
Clouds
  • Scattered at 25,000' AGL
Temperature Dewpoint
21°C / 70°F 18°C / 64°F
Humidity Altimeter Pressure
83% 29.84" Hg 1010.3 hPa